sensor_id;sensor_type;location;lat;lon;timestamp;P1;durP1;ratioP1;P2;durP2;ratioP2
49548;SDS011;35450;44.518;7.466;2023-06-22T00:01:25;16.80;;;6.10;;
49548;SDS011;35450;44.518;7.466;2023-06-22T00:04:29;22.05;;;6.40;;
49548;SDS011;35450;44.518;7.466;2023-06-22T00:07:33;13.57;;;6.70;;
49548;SDS011;35450;44.518;7.466;2023-06-22T00:10:37;12.73;;;6.25;;
49548;SDS011;35450;44.518;7.466;2023-06-22T00:13:41;10.40;;;6.80;;
49548;SDS011;35450;44.518;7.466;2023-06-22T00:16:45;13.48;;;7.15;;
49548;SDS011;35450;44.518;7.466;2023-06-22T00:19:51;16.83;;;6.57;;
49548;SDS011;35450;44.518;7.466;2023-06-22T00:22:57;21.60;;;6.82;;
49548;SDS011;35450;44.518;7.466;2023-06-22T00:26:01;14.98;;;7.30;;
49548;SDS011;35450;44.518;7.466;2023-06-22T00:29:05;15.05;;;6.60;;
49548;SDS011;35450;44.518;7.466;2023-06-22T00:32:09;17.65;;;7.43;;
49548;SDS011;35450;44.518;7.466;2023-06-22T00:35:13;11.13;;;7.30;;
49548;SDS011;35450;44.518;7.466;2023-06-22T00:38:17;16.00;;;8.13;;
49548;SDS011;35450;44.518;7.466;2023-06-22T00:41:21;12.48;;;8.40;;
49548;SDS011;35450;44.518;7.466;2023-06-22T00:44:25;18.23;;;7.88;;
49548;SDS011;35450;44.518;7.466;2023-06-22T00:47:29;12.00;;;7.25;;
49548;SDS011;35450;44.518;7.466;2023-06-22T00:50:33;17.85;;;7.55;;
49548;SDS011;35450;44.518;7.466;2023-06-22T00:53:38;13.05;;;7.68;;
49548;SDS011;35450;44.518;7.466;2023-06-22T00:56:42;12.43;;;7.05;;
49548;SDS011;35450;44.518;7.466;2023-06-22T00:59:47;20.80;;;7.65;;
49548;SDS011;35450;44.518;7.466;2023-06-22T01:02:52;15.07;;;7.88;;
49548;SDS011;35450;44.518;7.466;2023-06-22T01:05:59;10.65;;;5.88;;
49548;SDS011;35450;44.518;7.466;2023-06-22T01:09:15;15.88;;;6.60;;
49548;SDS011;35450;44.518;7.466;2023-06-22T01:12:20;17.95;;;8.90;;
49548;SDS011;35450;44.518;7.466;2023-06-22T01:15:33;15.00;;;9.07;;
49548;SDS011;35450;44.518;7.466;2023-06-22T01:19:01;12.20;;;8.75;;
49548;SDS011;35450;44.518;7.466;2023-06-22T01:22:17;19.08;;;9.95;;
49548;SDS011;35450;44.518;7.466;2023-06-22T01:25:28;15.20;;;9.95;;
49548;SDS011;35450;44.518;7.466;2023-06-22T01:28:43;18.48;;;8.88;;
49548;SDS011;35450;44.518;7.466;2023-06-22T01:31:53;15.85;;;9.57;;
49548;SDS011;35450;44.518;7.466;2023-06-22T01:35:00;18.20;;;9.63;;
49548;SDS011;35450;44.518;7.466;2023-06-22T01:38:08;20.17;;;10.10;;
49548;SDS011;35450;44.518;7.466;2023-06-22T01:41:12;15.30;;;8.55;;
49548;SDS011;35450;44.518;7.466;2023-06-22T01:44:17;15.73;;;8.90;;
49548;SDS011;35450;44.518;7.466;2023-06-22T01:47:21;11.73;;;8.15;;
49548;SDS011;35450;44.518;7.466;2023-06-22T01:50:26;14.98;;;9.48;;
49548;SDS011;35450;44.518;7.466;2023-06-22T01:53:30;14.05;;;8.98;;
49548;SDS011;35450;44.518;7.466;2023-06-22T01:56:34;14.27;;;9.70;;
49548;SDS011;35450;44.518;7.466;2023-06-22T02:03:12;22.02;;;9.20;;
49548;SDS011;35450;44.518;7.466;2023-06-22T02:06:27;15.80;;;11.02;;
49548;SDS011;35450;44.518;7.466;2023-06-22T02:09:38;20.10;;;9.57;;
49548;SDS011;35450;44.518;7.466;2023-06-22T02:12:44;16.02;;;8.80;;
49548;SDS011;35450;44.518;7.466;2023-06-22T02:15:49;12.77;;;8.50;;
49548;SDS011;35450;44.518;7.466;2023-06-22T02:18:55;15.57;;;9.30;;
49548;SDS011;35450;44.518;7.466;2023-06-22T02:22:00;18.35;;;8.75;;
49548;SDS011;35450;44.518;7.466;2023-06-22T02:25:03;19.05;;;8.63;;
49548;SDS011;35450;44.518;7.466;2023-06-22T02:28:07;11.02;;;8.13;;
49548;SDS011;35450;44.518;7.466;2023-06-22T02:31:11;17.15;;;8.32;;
49548;SDS011;35450;44.518;7.466;2023-06-22T02:34:15;15.20;;;9.02;;
49548;SDS011;35450;44.518;7.466;2023-06-22T02:37:21;14.02;;;9.05;;
49548;SDS011;35450;44.518;7.466;2023-06-22T02:40:30;15.57;;;9.75;;
49548;SDS011;35450;44.518;7.466;2023-06-22T02:43:35;15.07;;;10.68;;
49548;SDS011;35450;44.518;7.466;2023-06-22T02:46:38;18.52;;;9.40;;
49548;SDS011;35450;44.518;7.466;2023-06-22T02:49:43;13.73;;;10.75;;
49548;SDS011;35450;44.518;7.466;2023-06-22T02:52:49;15.52;;;10.88;;
49548;SDS011;35450;44.518;7.466;2023-06-22T02:55:53;15.15;;;10.48;;
49548;SDS011;35450;44.518;7.466;2023-06-22T02:58:59;16.00;;;11.63;;
49548;SDS011;35450;44.518;7.466;2023-06-22T03:02:11;15.35;;;10.77;;
49548;SDS011;35450;44.518;7.466;2023-06-22T03:05:16;12.30;;;10.60;;
49548;SDS011;35450;44.518;7.466;2023-06-22T03:08:22;14.85;;;9.95;;
49548;SDS011;35450;44.518;7.466;2023-06-22T03:11:26;20.17;;;11.18;;
49548;SDS011;35450;44.518;7.466;2023-06-22T03:14:30;15.65;;;10.70;;
49548;SDS011;35450;44.518;7.466;2023-06-22T03:17:35;19.25;;;12.18;;
49548;SDS011;35450;44.518;7.466;2023-06-22T03:20:40;18.52;;;11.18;;
49548;SDS011;35450;44.518;7.466;2023-06-22T03:23:46;19.38;;;12.20;;
49548;SDS011;35450;44.518;7.466;2023-06-22T03:26:49;19.35;;;11.27;;
49548;SDS011;35450;44.518;7.466;2023-06-22T03:29:53;18.95;;;10.90;;
49548;SDS011;35450;44.518;7.466;2023-06-22T03:32:57;17.20;;;10.52;;
49548;SDS011;35450;44.518;7.466;2023-06-22T03:36:04;28.50;;;12.55;;
49548;SDS011;35450;44.518;7.466;2023-06-22T03:39:08;16.67;;;12.43;;
49548;SDS011;35450;44.518;7.466;2023-06-22T03:42:12;15.57;;;10.18;;
49548;SDS011;35450;44.518;7.466;2023-06-22T03:45:17;21.25;;;12.55;;
49548;SDS011;35450;44.518;7.466;2023-06-22T03:48:21;18.50;;;11.82;;
49548;SDS011;35450;44.518;7.466;2023-06-22T03:51:25;20.38;;;12.35;;
49548;SDS011;35450;44.518;7.466;2023-06-22T03:54:29;15.30;;;10.35;;
49548;SDS011;35450;44.518;7.466;2023-06-22T03:57:33;20.65;;;11.93;;
49548;SDS011;35450;44.518;7.466;2023-06-22T04:00:37;15.93;;;11.38;;
49548;SDS011;35450;44.518;7.466;2023-06-22T04:03:41;17.85;;;10.90;;
49548;SDS011;35450;44.518;7.466;2023-06-22T04:06:46;16.38;;;11.23;;
49548;SDS011;35450;44.518;7.466;2023-06-22T04:09:50;18.40;;;11.13;;
49548;SDS011;35450;44.518;7.466;2023-06-22T04:12:54;15.40;;;11.15;;
49548;SDS011;35450;44.518;7.466;2023-06-22T04:15:58;12.35;;;9.88;;
49548;SDS011;35450;44.518;7.466;2023-06-22T04:19:02;14.98;;;10.43;;
49548;SDS011;35450;44.518;7.466;2023-06-22T04:22:06;21.42;;;11.13;;
49548;SDS011;35450;44.518;7.466;2023-06-22T04:25:10;17.45;;;11.50;;
49548;SDS011;35450;44.518;7.466;2023-06-22T04:28:14;21.15;;;11.77;;
49548;SDS011;35450;44.518;7.466;2023-06-22T04:31:18;16.30;;;12.15;;
49548;SDS011;35450;44.518;7.466;2023-06-22T04:34:22;21.50;;;13.48;;
49548;SDS011;35450;44.518;7.466;2023-06-22T04:37:29;19.52;;;13.38;;
49548;SDS011;35450;44.518;7.466;2023-06-22T04:40:34;21.45;;;14.45;;
49548;SDS011;35450;44.518;7.466;2023-06-22T04:43:38;26.95;;;12.75;;
49548;SDS011;35450;44.518;7.466;2023-06-22T04:46:42;18.58;;;12.45;;
49548;SDS011;35450;44.518;7.466;2023-06-22T04:49:45;23.58;;;12.60;;
49548;SDS011;35450;44.518;7.466;2023-06-22T04:52:50;24.70;;;12.65;;
49548;SDS011;35450;44.518;7.466;2023-06-22T04:55:54;18.77;;;12.45;;
49548;SDS011;35450;44.518;7.466;2023-06-22T04:58:58;28.67;;;13.63;;
49548;SDS011;35450;44.518;7.466;2023-06-22T05:02:02;24.98;;;14.30;;
49548;SDS011;35450;44.518;7.466;2023-06-22T05:05:07;21.25;;;13.77;;
49548;SDS011;35450;44.518;7.466;2023-06-22T05:08:11;26.60;;;13.27;;
49548;SDS011;35450;44.518;7.466;2023-06-22T05:11:16;20.17;;;12.45;;
49548;SDS011;35450;44.518;7.466;2023-06-22T05:14:19;22.83;;;14.18;;
49548;SDS011;35450;44.518;7.466;2023-06-22T05:17:24;15.55;;;12.25;;
49548;SDS011;35450;44.518;7.466;2023-06-22T05:20:28;21.30;;;13.02;;
49548;SDS011;35450;44.518;7.466;2023-06-22T05:23:32;21.90;;;12.82;;
49548;SDS011;35450;44.518;7.466;2023-06-22T05:26:36;23.02;;;12.63;;
49548;SDS011;35450;44.518;7.466;2023-06-22T05:29:40;33.70;;;13.68;;
49548;SDS011;35450;44.518;7.466;2023-06-22T05:32:46;30.55;;;14.70;;
49548;SDS011;35450;44.518;7.466;2023-06-22T05:35:50;23.70;;;13.63;;
49548;SDS011;35450;44.518;7.466;2023-06-22T05:38:55;20.63;;;12.15;;
49548;SDS011;35450;44.518;7.466;2023-06-22T05:42:00;19.05;;;12.85;;
49548;SDS011;35450;44.518;7.466;2023-06-22T05:45:04;21.58;;;11.48;;
49548;SDS011;35450;44.518;7.466;2023-06-22T05:48:08;14.07;;;10.50;;
49548;SDS011;35450;44.518;7.466;2023-06-22T05:51:12;17.90;;;12.10;;
49548;SDS011;35450;44.518;7.466;2023-06-22T05:54:16;21.52;;;11.65;;
49548;SDS011;35450;44.518;7.466;2023-06-22T05:57:21;22.45;;;12.25;;
49548;SDS011;35450;44.518;7.466;2023-06-22T06:00:24;21.30;;;11.13;;
49548;SDS011;35450;44.518;7.466;2023-06-22T06:03:28;17.90;;;11.77;;
49548;SDS011;35450;44.518;7.466;2023-06-22T06:06:33;15.23;;;11.30;;
49548;SDS011;35450;44.518;7.466;2023-06-22T06:09:40;15.30;;;11.35;;
49548;SDS011;35450;44.518;7.466;2023-06-22T06:12:45;15.82;;;11.18;;
49548;SDS011;35450;44.518;7.466;2023-06-22T06:15:49;23.80;;;12.10;;
49548;SDS011;35450;44.518;7.466;2023-06-22T06:18:58;19.58;;;12.00;;
49548;SDS011;35450;44.518;7.466;2023-06-22T06:22:02;20.70;;;11.00;;
49548;SDS011;35450;44.518;7.466;2023-06-22T06:25:06;20.13;;;11.30;;
49548;SDS011;35450;44.518;7.466;2023-06-22T06:28:10;15.30;;;9.48;;
49548;SDS011;35450;44.518;7.466;2023-06-22T06:31:14;22.40;;;11.35;;
49548;SDS011;35450;44.518;7.466;2023-06-22T06:34:21;17.42;;;10.98;;
49548;SDS011;35450;44.518;7.466;2023-06-22T06:37:25;19.05;;;10.05;;
49548;SDS011;35450;44.518;7.466;2023-06-22T06:40:29;16.92;;;10.60;;
49548;SDS011;35450;44.518;7.466;2023-06-22T06:43:33;25.58;;;10.77;;
49548;SDS011;35450;44.518;7.466;2023-06-22T06:46:37;18.73;;;10.07;;
49548;SDS011;35450;44.518;7.466;2023-06-22T06:49:41;17.00;;;9.63;;
49548;SDS011;35450;44.518;7.466;2023-06-22T06:52:45;12.60;;;8.73;;
49548;SDS011;35450;44.518;7.466;2023-06-22T06:55:49;20.30;;;8.73;;
49548;SDS011;35450;44.518;7.466;2023-06-22T06:58:53;16.83;;;8.35;;
49548;SDS011;35450;44.518;7.466;2023-06-22T07:01:58;20.70;;;9.05;;
49548;SDS011;35450;44.518;7.466;2023-06-22T07:05:02;12.35;;;8.45;;
49548;SDS011;35450;44.518;7.466;2023-06-22T07:08:07;11.65;;;7.25;;
49548;SDS011;35450;44.518;7.466;2023-06-22T07:11:11;13.35;;;7.60;;
49548;SDS011;35450;44.518;7.466;2023-06-22T07:14:15;12.32;;;7.82;;
49548;SDS011;35450;44.518;7.466;2023-06-22T07:17:20;18.73;;;7.22;;
49548;SDS011;35450;44.518;7.466;2023-06-22T07:20:24;13.73;;;7.45;;
49548;SDS011;35450;44.518;7.466;2023-06-22T07:23:28;14.50;;;8.00;;
49548;SDS011;35450;44.518;7.466;2023-06-22T07:26:32;15.05;;;8.38;;
49548;SDS011;35450;44.518;7.466;2023-06-22T07:29:36;11.68;;;7.97;;
49548;SDS011;35450;44.518;7.466;2023-06-22T07:32:43;17.08;;;9.32;;
49548;SDS011;35450;44.518;7.466;2023-06-22T07:35:47;20.60;;;10.00;;
49548;SDS011;35450;44.518;7.466;2023-06-22T07:38:52;19.65;;;11.45;;
49548;SDS011;35450;44.518;7.466;2023-06-22T07:41:57;17.85;;;11.32;;
49548;SDS011;35450;44.518;7.466;2023-06-22T07:45:04;17.63;;;13.48;;
49548;SDS011;35450;44.518;7.466;2023-06-22T07:48:11;22.05;;;12.30;;
49548;SDS011;35450;44.518;7.466;2023-06-22T07:51:15;18.75;;;14.10;;
49548;SDS011;35450;44.518;7.466;2023-06-22T07:54:19;21.60;;;13.88;;
49548;SDS011;35450;44.518;7.466;2023-06-22T07:57:24;23.77;;;14.48;;
49548;SDS011;35450;44.518;7.466;2023-06-22T08:00:36;23.73;;;14.60;;
49548;SDS011;35450;44.518;7.466;2023-06-22T08:03:41;26.52;;;12.55;;
49548;SDS011;35450;44.518;7.466;2023-06-22T08:06:45;19.23;;;11.93;;
49548;SDS011;35450;44.518;7.466;2023-06-22T08:09:49;19.35;;;11.02;;
49548;SDS011;35450;44.518;7.466;2023-06-22T08:12:53;15.85;;;10.98;;
49548;SDS011;35450;44.518;7.466;2023-06-22T08:15:57;22.17;;;10.65;;
49548;SDS011;35450;44.518;7.466;2023-06-22T08:19:01;15.77;;;10.68;;
49548;SDS011;35450;44.518;7.466;2023-06-22T08:22:05;12.85;;;9.13;;
49548;SDS011;35450;44.518;7.466;2023-06-22T08:25:10;20.70;;;9.82;;
49548;SDS011;35450;44.518;7.466;2023-06-22T08:28:14;15.38;;;9.90;;
49548;SDS011;35450;44.518;7.466;2023-06-22T08:31:18;15.38;;;7.93;;
49548;SDS011;35450;44.518;7.466;2023-06-22T08:34:22;21.83;;;8.85;;
49548;SDS011;35450;44.518;7.466;2023-06-22T08:37:28;14.18;;;8.43;;
49548;SDS011;35450;44.518;7.466;2023-06-22T08:40:38;11.85;;;7.35;;
49548;SDS011;35450;44.518;7.466;2023-06-22T08:43:42;14.57;;;8.07;;
49548;SDS011;35450;44.518;7.466;2023-06-22T08:46:47;14.35;;;6.82;;
49548;SDS011;35450;44.518;7.466;2023-06-22T08:49:51;13.23;;;7.07;;
49548;SDS011;35450;44.518;7.466;2023-06-22T08:52:55;19.88;;;6.60;;
49548;SDS011;35450;44.518;7.466;2023-06-22T08:55:59;13.48;;;6.10;;
49548;SDS011;35450;44.518;7.466;2023-06-22T08:59:03;10.80;;;5.63;;
49548;SDS011;35450;44.518;7.466;2023-06-22T09:02:07;11.82;;;6.07;;
49548;SDS011;35450;44.518;7.466;2023-06-22T09:05:11;22.55;;;7.60;;
49548;SDS011;35450;44.518;7.466;2023-06-22T09:08:15;10.75;;;6.70;;
49548;SDS011;35450;44.518;7.466;2023-06-22T09:11:19;18.25;;;6.63;;
49548;SDS011;35450;44.518;7.466;2023-06-22T09:14:23;13.13;;;6.70;;
49548;SDS011;35450;44.518;7.466;2023-06-22T09:17:28;20.45;;;8.13;;
49548;SDS011;35450;44.518;7.466;2023-06-22T09:20:33;12.68;;;6.55;;
49548;SDS011;35450;44.518;7.466;2023-06-22T09:23:37;14.93;;;6.57;;
49548;SDS011;35450;44.518;7.466;2023-06-22T09:26:41;7.75;;;5.45;;
49548;SDS011;35450;44.518;7.466;2023-06-22T09:29:45;18.08;;;5.22;;
49548;SDS011;35450;44.518;7.466;2023-06-22T09:32:49;11.38;;;5.53;;
49548;SDS011;35450;44.518;7.466;2023-06-22T09:35:53;11.57;;;6.65;;
49548;SDS011;35450;44.518;7.466;2023-06-22T09:38:57;8.75;;;5.90;;
49548;SDS011;35450;44.518;7.466;2023-06-22T09:42:02;21.38;;;5.57;;
49548;SDS011;35450;44.518;7.466;2023-06-22T09:45:06;8.50;;;4.10;;
49548;SDS011;35450;44.518;7.466;2023-06-22T09:48:10;11.82;;;5.47;;
49548;SDS011;35450;44.518;7.466;2023-06-22T09:51:14;10.77;;;5.25;;
49548;SDS011;35450;44.518;7.466;2023-06-22T09:54:19;12.65;;;4.97;;
49548;SDS011;35450;44.518;7.466;2023-06-22T09:57:23;16.05;;;5.78;;
49548;SDS011;35450;44.518;7.466;2023-06-22T10:00:27;9.90;;;5.03;;
49548;SDS011;35450;44.518;7.466;2023-06-22T10:03:31;7.50;;;4.75;;
49548;SDS011;35450;44.518;7.466;2023-06-22T10:06:35;15.45;;;5.80;;
49548;SDS011;35450;44.518;7.466;2023-06-22T10:09:39;11.05;;;5.15;;
49548;SDS011;35450;44.518;7.466;2023-06-22T10:12:47;14.60;;;6.18;;
49548;SDS011;35450;44.518;7.466;2023-06-22T10:15:58;16.70;;;6.75;;
49548;SDS011;35450;44.518;7.466;2023-06-22T10:19:02;13.30;;;6.82;;
49548;SDS011;35450;44.518;7.466;2023-06-22T10:22:06;22.95;;;6.45;;
49548;SDS011;35450;44.518;7.466;2023-06-22T10:25:10;11.75;;;5.97;;
49548;SDS011;35450;44.518;7.466;2023-06-22T10:28:16;12.02;;;5.53;;
49548;SDS011;35450;44.518;7.466;2023-06-22T10:31:20;9.52;;;5.68;;
49548;SDS011;35450;44.518;7.466;2023-06-22T10:34:24;14.45;;;6.60;;
49548;SDS011;35450;44.518;7.466;2023-06-22T10:37:27;12.50;;;5.80;;
49548;SDS011;35450;44.518;7.466;2023-06-22T10:40:32;14.90;;;5.70;;
49548;SDS011;35450;44.518;7.466;2023-06-22T10:43:36;18.98;;;6.30;;
49548;SDS011;35450;44.518;7.466;2023-06-22T10:46:40;13.52;;;5.97;;
49548;SDS011;35450;44.518;7.466;2023-06-22T10:49:44;11.40;;;6.25;;
49548;SDS011;35450;44.518;7.466;2023-06-22T10:52:48;11.25;;;6.45;;
49548;SDS011;35450;44.518;7.466;2023-06-22T10:55:52;14.65;;;6.15;;
49548;SDS011;35450;44.518;7.466;2023-06-22T10:58:57;13.43;;;6.70;;
49548;SDS011;35450;44.518;7.466;2023-06-22T11:02:02;14.32;;;7.20;;
49548;SDS011;35450;44.518;7.466;2023-06-22T11:05:06;16.08;;;6.40;;
49548;SDS011;35450;44.518;7.466;2023-06-22T11:08:10;14.27;;;7.20;;
49548;SDS011;35450;44.518;7.466;2023-06-22T11:11:14;17.20;;;7.38;;
49548;SDS011;35450;44.518;7.466;2023-06-22T11:14:21;16.50;;;8.05;;
49548;SDS011;35450;44.518;7.466;2023-06-22T11:17:25;19.08;;;6.78;;
49548;SDS011;35450;44.518;7.466;2023-06-22T11:20:30;15.15;;;7.97;;
49548;SDS011;35450;44.518;7.466;2023-06-22T11:23:34;15.25;;;8.23;;
49548;SDS011;35450;44.518;7.466;2023-06-22T11:26:38;13.50;;;7.25;;
49548;SDS011;35450;44.518;7.466;2023-06-22T11:29:42;14.30;;;7.45;;
49548;SDS011;35450;44.518;7.466;2023-06-22T11:32:46;15.75;;;7.13;;
49548;SDS011;35450;44.518;7.466;2023-06-22T11:35:50;16.33;;;8.02;;
49548;SDS011;35450;44.518;7.466;2023-06-22T11:38:54;21.20;;;9.82;;
49548;SDS011;35450;44.518;7.466;2023-06-22T11:41:58;16.05;;;7.85;;
49548;SDS011;35450;44.518;7.466;2023-06-22T11:45:04;17.98;;;7.75;;
49548;SDS011;35450;44.518;7.466;2023-06-22T11:48:10;13.52;;;6.85;;
49548;SDS011;35450;44.518;7.466;2023-06-22T11:51:13;11.85;;;6.63;;
49548;SDS011;35450;44.518;7.466;2023-06-22T11:54:17;13.98;;;6.50;;
49548;SDS011;35450;44.518;7.466;2023-06-22T11:57:21;10.55;;;6.63;;
49548;SDS011;35450;44.518;7.466;2023-06-22T12:00:26;15.82;;;6.65;;
49548;SDS011;35450;44.518;7.466;2023-06-22T12:03:31;12.18;;;7.00;;
49548;SDS011;35450;44.518;7.466;2023-06-22T12:06:35;19.48;;;7.10;;
49548;SDS011;35450;44.518;7.466;2023-06-22T12:09:41;18.30;;;6.18;;
49548;SDS011;35450;44.518;7.466;2023-06-22T12:12:45;14.00;;;6.03;;
49548;SDS011;35450;44.518;7.466;2023-06-22T12:15:49;16.40;;;5.50;;
49548;SDS011;35450;44.518;7.466;2023-06-22T12:18:55;10.23;;;5.18;;
49548;SDS011;35450;44.518;7.466;2023-06-22T12:21:59;16.15;;;5.60;;
49548;SDS011;35450;44.518;7.466;2023-06-22T12:25:03;11.35;;;5.20;;
49548;SDS011;35450;44.518;7.466;2023-06-22T12:28:08;16.50;;;6.43;;
49548;SDS011;35450;44.518;7.466;2023-06-22T12:31:12;10.75;;;5.40;;
49548;SDS011;35450;44.518;7.466;2023-06-22T12:34:17;18.90;;;5.60;;
49548;SDS011;35450;44.518;7.466;2023-06-22T12:37:22;10.48;;;5.15;;
49548;SDS011;35450;44.518;7.466;2023-06-22T12:40:26;13.80;;;5.43;;
49548;SDS011;35450;44.518;7.466;2023-06-22T12:43:30;15.32;;;4.80;;
49548;SDS011;35450;44.518;7.466;2023-06-22T12:46:34;12.68;;;4.47;;
49548;SDS011;35450;44.518;7.466;2023-06-22T12:49:40;18.33;;;5.20;;
49548;SDS011;35450;44.518;7.466;2023-06-22T12:52:45;9.52;;;5.47;;
49548;SDS011;35450;44.518;7.466;2023-06-22T12:55:49;11.55;;;5.05;;
49548;SDS011;35450;44.518;7.466;2023-06-22T12:58:53;12.25;;;5.28;;
49548;SDS011;35450;44.518;7.466;2023-06-22T13:01:56;13.85;;;5.72;;
49548;SDS011;35450;44.518;7.466;2023-06-22T13:05:01;16.85;;;4.60;;
49548;SDS011;35450;44.518;7.466;2023-06-22T13:08:05;9.45;;;4.60;;
49548;SDS011;35450;44.518;7.466;2023-06-22T13:11:10;9.55;;;4.50;;
49548;SDS011;35450;44.518;7.466;2023-06-22T13:14:14;20.42;;;4.57;;
49548;SDS011;35450;44.518;7.466;2023-06-22T13:17:20;13.73;;;4.72;;
49548;SDS011;35450;44.518;7.466;2023-06-22T13:20:25;8.27;;;4.72;;
49548;SDS011;35450;44.518;7.466;2023-06-22T13:23:29;9.68;;;3.95;;
49548;SDS011;35450;44.518;7.466;2023-06-22T13:26:34;7.60;;;4.50;;
49548;SDS011;35450;44.518;7.466;2023-06-22T13:29:38;8.82;;;4.65;;
49548;SDS011;35450;44.518;7.466;2023-06-22T13:32:42;21.15;;;4.30;;
49548;SDS011;35450;44.518;7.466;2023-06-22T13:35:47;9.25;;;4.63;;
49548;SDS011;35450;44.518;7.466;2023-06-22T13:38:51;10.77;;;4.28;;
49548;SDS011;35450;44.518;7.466;2023-06-22T13:41:55;8.57;;;5.43;;
49548;SDS011;35450;44.518;7.466;2023-06-22T13:44:59;9.05;;;4.88;;
49548;SDS011;35450;44.518;7.466;2023-06-22T13:48:03;14.32;;;5.53;;
49548;SDS011;35450;44.518;7.466;2023-06-22T13:51:08;12.23;;;5.38;;
49548;SDS011;35450;44.518;7.466;2023-06-22T13:54:12;12.05;;;5.82;;
49548;SDS011;35450;44.518;7.466;2023-06-22T13:57:16;9.50;;;5.15;;
49548;SDS011;35450;44.518;7.466;2023-06-22T14:00:20;13.98;;;5.82;;
49548;SDS011;35450;44.518;7.466;2023-06-22T14:03:24;20.52;;;11.75;;
49548;SDS011;35450;44.518;7.466;2023-06-22T14:06:28;17.13;;;7.00;;
49548;SDS011;35450;44.518;7.466;2023-06-22T14:09:32;13.77;;;8.05;;
49548;SDS011;35450;44.518;7.466;2023-06-22T14:12:36;10.45;;;4.93;;
49548;SDS011;35450;44.518;7.466;2023-06-22T14:15:41;15.52;;;5.47;;
49548;SDS011;35450;44.518;7.466;2023-06-22T14:18:46;7.75;;;4.55;;
49548;SDS011;35450;44.518;7.466;2023-06-22T14:21:50;24.20;;;7.07;;
49548;SDS011;35450;44.518;7.466;2023-06-22T14:24:56;13.35;;;6.57;;
49548;SDS011;35450;44.518;7.466;2023-06-22T14:28:01;14.75;;;6.22;;
49548;SDS011;35450;44.518;7.466;2023-06-22T14:31:05;16.95;;;6.55;;
49548;SDS011;35450;44.518;7.466;2023-06-22T14:34:09;19.35;;;6.03;;
49548;SDS011;35450;44.518;7.466;2023-06-22T14:37:13;18.35;;;6.57;;
49548;SDS011;35450;44.518;7.466;2023-06-22T14:40:17;12.93;;;6.07;;
49548;SDS011;35450;44.518;7.466;2023-06-22T14:43:21;14.73;;;7.15;;
49548;SDS011;35450;44.518;7.466;2023-06-22T14:46:25;16.65;;;8.38;;
49548;SDS011;35450;44.518;7.466;2023-06-22T14:49:28;21.27;;;7.22;;
49548;SDS011;35450;44.518;7.466;2023-06-22T14:52:33;21.15;;;7.90;;
49548;SDS011;35450;44.518;7.466;2023-06-22T14:55:37;23.90;;;7.68;;
49548;SDS011;35450;44.518;7.466;2023-06-22T14:58:41;18.58;;;8.13;;
49548;SDS011;35450;44.518;7.466;2023-06-22T15:01:48;26.08;;;7.22;;
49548;SDS011;35450;44.518;7.466;2023-06-22T15:04:52;15.07;;;6.93;;
49548;SDS011;35450;44.518;7.466;2023-06-22T15:07:57;13.18;;;6.85;;
49548;SDS011;35450;44.518;7.466;2023-06-22T15:11:02;14.13;;;7.90;;
49548;SDS011;35450;44.518;7.466;2023-06-22T15:14:06;23.75;;;6.38;;
49548;SDS011;35450;44.518;7.466;2023-06-22T15:17:10;12.88;;;5.68;;
49548;SDS011;35450;44.518;7.466;2023-06-22T15:20:17;20.33;;;6.60;;
49548;SDS011;35450;44.518;7.466;2023-06-22T15:23:21;14.05;;;6.10;;
49548;SDS011;35450;44.518;7.466;2023-06-22T15:26:25;16.52;;;5.50;;
49548;SDS011;35450;44.518;7.466;2023-06-22T15:29:29;8.98;;;5.93;;
49548;SDS011;35450;44.518;7.466;2023-06-22T15:32:37;14.32;;;6.05;;
49548;SDS011;35450;44.518;7.466;2023-06-22T15:35:41;14.02;;;6.50;;
49548;SDS011;35450;44.518;7.466;2023-06-22T15:38:44;18.60;;;5.80;;
49548;SDS011;35450;44.518;7.466;2023-06-22T15:41:49;14.35;;;5.75;;
49548;SDS011;35450;44.518;7.466;2023-06-22T15:44:57;15.27;;;6.53;;
49548;SDS011;35450;44.518;7.466;2023-06-22T15:48:01;15.85;;;6.72;;
49548;SDS011;35450;44.518;7.466;2023-06-22T15:51:05;13.05;;;6.57;;
49548;SDS011;35450;44.518;7.466;2023-06-22T15:54:09;14.15;;;7.30;;
49548;SDS011;35450;44.518;7.466;2023-06-22T15:57:15;13.10;;;7.43;;
49548;SDS011;35450;44.518;7.466;2023-06-22T16:00:19;23.55;;;8.18;;
49548;SDS011;35450;44.518;7.466;2023-06-22T16:03:24;15.40;;;7.75;;
49548;SDS011;35450;44.518;7.466;2023-06-22T16:06:28;11.80;;;7.80;;
49548;SDS011;35450;44.518;7.466;2023-06-22T16:09:33;20.25;;;7.30;;
49548;SDS011;35450;44.518;7.466;2023-06-22T16:12:36;11.50;;;6.95;;
49548;SDS011;35450;44.518;7.466;2023-06-22T16:15:46;30.00;;;7.90;;
49548;SDS011;35450;44.518;7.466;2023-06-22T16:18:50;11.98;;;6.93;;
49548;SDS011;35450;44.518;7.466;2023-06-22T16:21:54;9.52;;;6.93;;
49548;SDS011;35450;44.518;7.466;2023-06-22T16:24:58;17.38;;;7.13;;
49548;SDS011;35450;44.518;7.466;2023-06-22T16:28:02;13.45;;;7.53;;
49548;SDS011;35450;44.518;7.466;2023-06-22T16:31:06;9.63;;;6.55;;
49548;SDS011;35450;44.518;7.466;2023-06-22T16:34:10;9.82;;;6.28;;
49548;SDS011;35450;44.518;7.466;2023-06-22T16:37:14;14.40;;;6.35;;
49548;SDS011;35450;44.518;7.466;2023-06-22T16:40:18;12.43;;;6.05;;
49548;SDS011;35450;44.518;7.466;2023-06-22T16:43:23;12.75;;;5.88;;
49548;SDS011;35450;44.518;7.466;2023-06-22T16:46:27;10.05;;;5.38;;
49548;SDS011;35450;44.518;7.466;2023-06-22T16:49:31;15.75;;;6.03;;
49548;SDS011;35450;44.518;7.466;2023-06-22T16:52:35;9.68;;;6.10;;
49548;SDS011;35450;44.518;7.466;2023-06-22T16:55:40;12.80;;;6.55;;
49548;SDS011;35450;44.518;7.466;2023-06-22T16:58:46;14.63;;;5.53;;
49548;SDS011;35450;44.518;7.466;2023-06-22T17:01:51;9.98;;;5.35;;
49548;SDS011;35450;44.518;7.466;2023-06-22T17:04:56;13.27;;;5.47;;
49548;SDS011;35450;44.518;7.466;2023-06-22T17:08:02;13.55;;;5.35;;
49548;SDS011;35450;44.518;7.466;2023-06-22T17:11:07;10.15;;;5.10;;
49548;SDS011;35450;44.518;7.466;2023-06-22T17:14:12;13.18;;;5.15;;
49548;SDS011;35450;44.518;7.466;2023-06-22T17:17:16;11.50;;;5.85;;
49548;SDS011;35450;44.518;7.466;2023-06-22T17:20:21;9.55;;;5.05;;
49548;SDS011;35450;44.518;7.466;2023-06-22T17:23:26;11.10;;;4.70;;
49548;SDS011;35450;44.518;7.466;2023-06-22T17:26:31;11.80;;;4.97;;
49548;SDS011;35450;44.518;7.466;2023-06-22T17:29:35;15.65;;;5.40;;
49548;SDS011;35450;44.518;7.466;2023-06-22T17:32:39;9.02;;;5.20;;
49548;SDS011;35450;44.518;7.466;2023-06-22T17:35:48;10.02;;;4.80;;
49548;SDS011;35450;44.518;7.466;2023-06-22T17:38:55;14.52;;;5.65;;
49548;SDS011;35450;44.518;7.466;2023-06-22T17:42:02;10.82;;;5.18;;
49548;SDS011;35450;44.518;7.466;2023-06-22T17:45:20;13.90;;;5.30;;
49548;SDS011;35450;44.518;7.466;2023-06-22T17:48:25;11.02;;;4.70;;
49548;SDS011;35450;44.518;7.466;2023-06-22T17:51:33;13.65;;;4.80;;
49548;SDS011;35450;44.518;7.466;2023-06-22T17:54:37;10.07;;;4.32;;
49548;SDS011;35450;44.518;7.466;2023-06-22T17:57:42;7.57;;;4.78;;
49548;SDS011;35450;44.518;7.466;2023-06-22T18:00:49;9.85;;;5.40;;
49548;SDS011;35450;44.518;7.466;2023-06-22T18:03:53;9.90;;;4.97;;
49548;SDS011;35450;44.518;7.466;2023-06-22T18:06:57;24.75;;;5.45;;
49548;SDS011;35450;44.518;7.466;2023-06-22T18:10:02;13.15;;;5.60;;
49548;SDS011;35450;44.518;7.466;2023-06-22T18:13:10;7.90;;;4.85;;
49548;SDS011;35450;44.518;7.466;2023-06-22T18:16:18;13.77;;;4.38;;
49548;SDS011;35450;44.518;7.466;2023-06-22T18:19:23;10.93;;;4.60;;